sensor_id;sensor_type;location;lat;lon;timestamp;temperature;humidity
42031;DHT22;27709;52.036;5.906;2024-01-25T00:01:07;10.00;99.90
42031;DHT22;27709;52.036;5.906;2024-01-25T00:03:32;9.90;99.90
42031;DHT22;27709;52.036;5.906;2024-01-25T00:05:58;9.80;99.90
42031;DHT22;27709;52.036;5.906;2024-01-25T00:08:23;9.70;99.90
42031;DHT22;27709;52.036;5.906;2024-01-25T00:10:49;9.70;99.90
42031;DHT22;27709;52.036;5.906;2024-01-25T00:13:15;9.60;99.90
42031;DHT22;27709;52.036;5.906;2024-01-25T00:15:40;9.60;99.90
42031;DHT22;27709;52.036;5.906;2024-01-25T00:18:06;9.50;99.90
42031;DHT22;27709;52.036;5.906;2024-01-25T00:20:31;9.40;99.90
42031;DHT22;27709;52.036;5.906;2024-01-25T00:22:57;9.40;99.90
42031;DHT22;27709;52.036;5.906;2024-01-25T00:25:22;9.30;99.90
42031;DHT22;27709;52.036;5.906;2024-01-25T00:27:48;9.30;99.90
42031;DHT22;27709;52.036;5.906;2024-01-25T00:30:14;9.20;99.90
42031;DHT22;27709;52.036;5.906;2024-01-25T00:32:39;9.20;99.90
42031;DHT22;27709;52.036;5.906;2024-01-25T00:35:05;9.20;99.90
42031;DHT22;27709;52.036;5.906;2024-01-25T00:37:31;9.20;99.90
42031;DHT22;27709;52.036;5.906;2024-01-25T00:39:57;9.10;99.90
42031;DHT22;27709;52.036;5.906;2024-01-25T00:42:23;9.10;99.90
42031;DHT22;27709;52.036;5.906;2024-01-25T00:44:49;9.10;99.90
42031;DHT22;27709;52.036;5.906;2024-01-25T00:47:15;9.10;99.90
42031;DHT22;27709;52.036;5.906;2024-01-25T00:49:41;9.10;99.90
42031;DHT22;27709;52.036;5.906;2024-01-25T00:52:07;9.10;99.90
42031;DHT22;27709;52.036;5.906;2024-01-25T00:54:33;9.00;99.90
42031;DHT22;27709;52.036;5.906;2024-01-25T00:56:59;9.00;99.90
42031;DHT22;27709;52.036;5.906;2024-01-25T00:59:25;9.00;99.90
42031;DHT22;27709;52.036;5.906;2024-01-25T01:01:53;9.00;99.90
42031;DHT22;27709;52.036;5.906;2024-01-25T01:04:20;9.00;99.90
42031;DHT22;27709;52.036;5.906;2024-01-25T01:06:46;8.90;99.90
42031;DHT22;27709;52.036;5.906;2024-01-25T01:09:13;8.90;99.90
42031;DHT22;27709;52.036;5.906;2024-01-25T01:11:39;8.90;99.90
42031;DHT22;27709;52.036;5.906;2024-01-25T01:14:04;8.90;99.90
42031;DHT22;27709;52.036;5.906;2024-01-25T01:16:30;8.90;99.90
42031;DHT22;27709;52.036;5.906;2024-01-25T01:18:58;8.80;99.90
42031;DHT22;27709;52.036;5.906;2024-01-25T01:21:30;8.80;99.90
42031;DHT22;27709;52.036;5.906;2024-01-25T01:23:56;8.70;99.90
42031;DHT22;27709;52.036;5.906;2024-01-25T01:26:21;8.70;99.90
42031;DHT22;27709;52.036;5.906;2024-01-25T01:28:47;8.70;99.90
42031;DHT22;27709;52.036;5.906;2024-01-25T01:31:13;8.60;99.90
42031;DHT22;27709;52.036;5.906;2024-01-25T01:33:38;8.60;99.90
42031;DHT22;27709;52.036;5.906;2024-01-25T01:36:04;8.50;99.90
42031;DHT22;27709;52.036;5.906;2024-01-25T01:38:29;8.50;99.90
42031;DHT22;27709;52.036;5.906;2024-01-25T01:40:55;8.50;99.90
42031;DHT22;27709;52.036;5.906;2024-01-25T01:43:21;8.40;99.90
42031;DHT22;27709;52.036;5.906;2024-01-25T01:45:48;8.40;99.90
42031;DHT22;27709;52.036;5.906;2024-01-25T01:48:14;8.30;99.90
42031;DHT22;27709;52.036;5.906;2024-01-25T01:50:40;8.20;99.90
42031;DHT22;27709;52.036;5.906;2024-01-25T01:53:06;8.20;99.90
42031;DHT22;27709;52.036;5.906;2024-01-25T01:55:32;8.20;99.90
42031;DHT22;27709;52.036;5.906;2024-01-25T01:57:58;8.10;99.90
42031;DHT22;27709;52.036;5.906;2024-01-25T02:00:24;8.10;99.90
42031;DHT22;27709;52.036;5.906;2024-01-25T02:02:51;8.00;99.90
42031;DHT22;27709;52.036;5.906;2024-01-25T02:05:17;8.00;99.90
42031;DHT22;27709;52.036;5.906;2024-01-25T02:07:43;7.90;99.90
42031;DHT22;27709;52.036;5.906;2024-01-25T02:10:09;7.90;99.90
42031;DHT22;27709;52.036;5.906;2024-01-25T02:12:35;7.90;99.90
42031;DHT22;27709;52.036;5.906;2024-01-25T02:15:02;7.80;99.90
42031;DHT22;27709;52.036;5.906;2024-01-25T02:17:27;7.80;99.90
42031;DHT22;27709;52.036;5.906;2024-01-25T02:19:53;7.70;99.90
42031;DHT22;27709;52.036;5.906;2024-01-25T02:22:19;7.70;99.90
42031;DHT22;27709;52.036;5.906;2024-01-25T02:24:45;7.70;99.90
42031;DHT22;27709;52.036;5.906;2024-01-25T02:27:11;7.60;99.90
42031;DHT22;27709;52.036;5.906;2024-01-25T02:29:36;7.60;99.90
42031;DHT22;27709;52.036;5.906;2024-01-25T02:32:02;7.50;99.90
42031;DHT22;27709;52.036;5.906;2024-01-25T02:34:28;7.50;99.90
42031;DHT22;27709;52.036;5.906;2024-01-25T02:36:54;7.50;99.90
42031;DHT22;27709;52.036;5.906;2024-01-25T02:39:19;7.40;99.90
42031;DHT22;27709;52.036;5.906;2024-01-25T02:41:45;7.40;99.90
42031;DHT22;27709;52.036;5.906;2024-01-25T02:44:11;7.40;99.90
42031;DHT22;27709;52.036;5.906;2024-01-25T02:46:37;7.40;99.90
42031;DHT22;27709;52.036;5.906;2024-01-25T02:49:04;7.30;99.90
42031;DHT22;27709;52.036;5.906;2024-01-25T02:51:29;7.30;99.90
42031;DHT22;27709;52.036;5.906;2024-01-25T02:53:55;7.20;99.90
42031;DHT22;27709;52.036;5.906;2024-01-25T02:56:21;7.20;99.90
42031;DHT22;27709;52.036;5.906;2024-01-25T02:58:47;7.20;99.90
42031;DHT22;27709;52.036;5.906;2024-01-25T03:01:12;7.10;99.90
42031;DHT22;27709;52.036;5.906;2024-01-25T03:03:38;7.10;99.90
42031;DHT22;27709;52.036;5.906;2024-01-25T03:06:06;7.10;99.90
42031;DHT22;27709;52.036;5.906;2024-01-25T03:08:31;7.00;99.90
42031;DHT22;27709;52.036;5.906;2024-01-25T03:10:57;7.00;99.90
42031;DHT22;27709;52.036;5.906;2024-01-25T03:13:23;7.00;99.90
42031;DHT22;27709;52.036;5.906;2024-01-25T03:15:48;6.90;99.90
42031;DHT22;27709;52.036;5.906;2024-01-25T03:18:14;6.90;99.90
42031;DHT22;27709;52.036;5.906;2024-01-25T03:20:39;6.90;99.90
42031;DHT22;27709;52.036;5.906;2024-01-25T03:23:05;6.90;99.90
42031;DHT22;27709;52.036;5.906;2024-01-25T03:25:30;6.90;99.90
42031;DHT22;27709;52.036;5.906;2024-01-25T03:27:57;6.90;99.90
42031;DHT22;27709;52.036;5.906;2024-01-25T03:30:22;6.80;99.90
42031;DHT22;27709;52.036;5.906;2024-01-25T03:32:48;6.80;99.90
42031;DHT22;27709;52.036;5.906;2024-01-25T03:35:13;6.80;99.90
42031;DHT22;27709;52.036;5.906;2024-01-25T03:37:39;6.80;99.90
42031;DHT22;27709;52.036;5.906;2024-01-25T03:40:05;6.80;99.90
42031;DHT22;27709;52.036;5.906;2024-01-25T03:42:31;6.80;99.90
42031;DHT22;27709;52.036;5.906;2024-01-25T03:44:57;6.80;99.90
42031;DHT22;27709;52.036;5.906;2024-01-25T03:47:22;6.70;99.90
42031;DHT22;27709;52.036;5.906;2024-01-25T03:49:48;6.60;99.90
42031;DHT22;27709;52.036;5.906;2024-01-25T03:52:14;6.60;99.90
42031;DHT22;27709;52.036;5.906;2024-01-25T03:54:40;6.50;99.90
42031;DHT22;27709;52.036;5.906;2024-01-25T03:57:05;6.50;99.90
42031;DHT22;27709;52.036;5.906;2024-01-25T03:59:31;6.50;99.90
42031;DHT22;27709;52.036;5.906;2024-01-25T04:01:56;6.40;99.90
42031;DHT22;27709;52.036;5.906;2024-01-25T04:04:22;6.40;99.90
42031;DHT22;27709;52.036;5.906;2024-01-25T04:06:48;6.40;99.90
42031;DHT22;27709;52.036;5.906;2024-01-25T04:09:13;6.40;99.90
42031;DHT22;27709;52.036;5.906;2024-01-25T04:11:41;6.40;99.90
42031;DHT22;27709;52.036;5.906;2024-01-25T04:14:06;6.40;99.90
42031;DHT22;27709;52.036;5.906;2024-01-25T04:16:33;6.40;99.90
42031;DHT22;27709;52.036;5.906;2024-01-25T04:18:59;6.30;99.90
42031;DHT22;27709;52.036;5.906;2024-01-25T04:21:24;6.30;99.90
42031;DHT22;27709;52.036;5.906;2024-01-25T04:23:50;6.30;99.90
42031;DHT22;27709;52.036;5.906;2024-01-25T04:26:15;6.30;99.90
42031;DHT22;27709;52.036;5.906;2024-01-25T04:28:42;6.30;99.90
42031;DHT22;27709;52.036;5.906;2024-01-25T04:31:07;6.20;99.90
42031;DHT22;27709;52.036;5.906;2024-01-25T04:33:33;6.10;99.90
42031;DHT22;27709;52.036;5.906;2024-01-25T04:35:59;6.20;99.90
42031;DHT22;27709;52.036;5.906;2024-01-25T04:38:25;6.10;99.90
42031;DHT22;27709;52.036;5.906;2024-01-25T04:40:50;6.10;99.90
42031;DHT22;27709;52.036;5.906;2024-01-25T04:43:16;6.10;99.90
42031;DHT22;27709;52.036;5.906;2024-01-25T04:45:41;6.10;99.90
42031;DHT22;27709;52.036;5.906;2024-01-25T04:48:07;6.10;99.90
42031;DHT22;27709;52.036;5.906;2024-01-25T04:50:33;6.10;99.90
42031;DHT22;27709;52.036;5.906;2024-01-25T04:53:01;6.10;99.90
42031;DHT22;27709;52.036;5.906;2024-01-25T04:55:27;6.10;99.90
42031;DHT22;27709;52.036;5.906;2024-01-25T04:57:53;6.10;99.90
42031;DHT22;27709;52.036;5.906;2024-01-25T05:00:20;6.10;99.90
42031;DHT22;27709;52.036;5.906;2024-01-25T05:02:47;6.10;99.90
42031;DHT22;27709;52.036;5.906;2024-01-25T05:05:12;6.00;99.90
42031;DHT22;27709;52.036;5.906;2024-01-25T05:07:38;5.90;99.90
42031;DHT22;27709;52.036;5.906;2024-01-25T05:10:04;5.90;99.90
42031;DHT22;27709;52.036;5.906;2024-01-25T05:12:29;5.80;99.90
42031;DHT22;27709;52.036;5.906;2024-01-25T05:14:55;5.70;99.90
42031;DHT22;27709;52.036;5.906;2024-01-25T05:17:20;5.50;99.90
42031;DHT22;27709;52.036;5.906;2024-01-25T05:19:46;5.50;99.90
42031;DHT22;27709;52.036;5.906;2024-01-25T05:22:12;5.40;99.90
42031;DHT22;27709;52.036;5.906;2024-01-25T05:24:37;5.40;99.90
42031;DHT22;27709;52.036;5.906;2024-01-25T05:27:03;5.30;99.90
42031;DHT22;27709;52.036;5.906;2024-01-25T05:29:28;5.30;99.90
42031;DHT22;27709;52.036;5.906;2024-01-25T05:31:54;5.20;99.90
42031;DHT22;27709;52.036;5.906;2024-01-25T05:34:19;5.20;99.90
42031;DHT22;27709;52.036;5.906;2024-01-25T05:36:45;5.20;99.90
42031;DHT22;27709;52.036;5.906;2024-01-25T05:39:10;5.20;99.90
42031;DHT22;27709;52.036;5.906;2024-01-25T05:41:38;5.10;99.90
42031;DHT22;27709;52.036;5.906;2024-01-25T05:44:04;5.10;99.90
42031;DHT22;27709;52.036;5.906;2024-01-25T05:46:30;5.10;99.90
42031;DHT22;27709;52.036;5.906;2024-01-25T05:48:55;5.00;99.90
42031;DHT22;27709;52.036;5.906;2024-01-25T05:51:21;5.00;99.90
42031;DHT22;27709;52.036;5.906;2024-01-25T05:53:46;5.00;99.90
42031;DHT22;27709;52.036;5.906;2024-01-25T05:56:12;4.90;99.90
42031;DHT22;27709;52.036;5.906;2024-01-25T05:58:37;4.90;99.90
42031;DHT22;27709;52.036;5.906;2024-01-25T06:01:03;4.80;99.90
42031;DHT22;27709;52.036;5.906;2024-01-25T06:03:29;4.80;99.90
42031;DHT22;27709;52.036;5.906;2024-01-25T06:05:55;4.80;99.90
42031;DHT22;27709;52.036;5.906;2024-01-25T06:08:21;4.80;99.90
42031;DHT22;27709;52.036;5.906;2024-01-25T06:10:46;4.70;99.90
42031;DHT22;27709;52.036;5.906;2024-01-25T06:13:12;4.70;99.90
42031;DHT22;27709;52.036;5.906;2024-01-25T06:15:37;4.70;99.90
42031;DHT22;27709;52.036;5.906;2024-01-25T06:18:04;4.70;99.90
42031;DHT22;27709;52.036;5.906;2024-01-25T06:20:29;4.80;99.90
42031;DHT22;27709;52.036;5.906;2024-01-25T06:22:55;4.80;99.90
42031;DHT22;27709;52.036;5.906;2024-01-25T06:25:20;4.70;99.90
42031;DHT22;27709;52.036;5.906;2024-01-25T06:27:47;4.70;99.90
42031;DHT22;27709;52.036;5.906;2024-01-25T06:30:14;4.60;99.90
42031;DHT22;27709;52.036;5.906;2024-01-25T06:32:40;4.60;99.90
42031;DHT22;27709;52.036;5.906;2024-01-25T06:35:06;4.60;99.90
42031;DHT22;27709;52.036;5.906;2024-01-25T06:37:31;4.60;99.90
42031;DHT22;27709;52.036;5.906;2024-01-25T06:39:57;4.60;99.90
42031;DHT22;27709;52.036;5.906;2024-01-25T06:42:24;4.60;99.90
42031;DHT22;27709;52.036;5.906;2024-01-25T06:44:49;4.50;99.90
42031;DHT22;27709;52.036;5.906;2024-01-25T06:47:15;4.50;99.90
42031;DHT22;27709;52.036;5.906;2024-01-25T06:49:41;4.50;99.90
42031;DHT22;27709;52.036;5.906;2024-01-25T06:52:06;4.40;99.90
42031;DHT22;27709;52.036;5.906;2024-01-25T06:54:32;4.40;99.90
42031;DHT22;27709;52.036;5.906;2024-01-25T06:56:58;4.40;99.90
42031;DHT22;27709;52.036;5.906;2024-01-25T06:59:23;4.30;99.90
42031;DHT22;27709;52.036;5.906;2024-01-25T07:01:49;4.30;99.90
42031;DHT22;27709;52.036;5.906;2024-01-25T07:04:15;4.30;99.90
42031;DHT22;27709;52.036;5.906;2024-01-25T07:06:40;4.30;99.90
42031;DHT22;27709;52.036;5.906;2024-01-25T07:09:06;4.30;99.90
42031;DHT22;27709;52.036;5.906;2024-01-25T07:11:32;4.30;99.90
42031;DHT22;27709;52.036;5.906;2024-01-25T07:13:57;4.30;99.90
42031;DHT22;27709;52.036;5.906;2024-01-25T07:16:23;4.30;99.90
42031;DHT22;27709;52.036;5.906;2024-01-25T07:18:49;4.30;99.90
42031;DHT22;27709;52.036;5.906;2024-01-25T07:21:14;4.30;99.90
42031;DHT22;27709;52.036;5.906;2024-01-25T07:23:41;4.30;99.90
42031;DHT22;27709;52.036;5.906;2024-01-25T07:26:07;4.30;99.90
42031;DHT22;27709;52.036;5.906;2024-01-25T07:28:32;4.30;99.90
42031;DHT22;27709;52.036;5.906;2024-01-25T07:30:58;4.40;99.90
42031;DHT22;27709;52.036;5.906;2024-01-25T07:33:23;4.30;99.90
42031;DHT22;27709;52.036;5.906;2024-01-25T07:35:49;4.30;99.90
42031;DHT22;27709;52.036;5.906;2024-01-25T07:38:15;4.30;99.90
42031;DHT22;27709;52.036;5.906;2024-01-25T07:40:41;4.30;99.90
42031;DHT22;27709;52.036;5.906;2024-01-25T07:43:06;4.30;99.90
42031;DHT22;27709;52.036;5.906;2024-01-25T07:45:32;4.30;99.90
42031;DHT22;27709;52.036;5.906;2024-01-25T07:47:58;4.30;99.90
42031;DHT22;27709;52.036;5.906;2024-01-25T07:50:24;4.30;99.90
42031;DHT22;27709;52.036;5.906;2024-01-25T07:52:50;4.40;99.90
42031;DHT22;27709;52.036;5.906;2024-01-25T07:55:16;4.40;99.90
42031;DHT22;27709;52.036;5.906;2024-01-25T07:57:42;4.50;99.90
42031;DHT22;27709;52.036;5.906;2024-01-25T08:00:08;4.50;99.90
42031;DHT22;27709;52.036;5.906;2024-01-25T08:02:35;4.60;99.90
42031;DHT22;27709;52.036;5.906;2024-01-25T08:05:01;4.60;99.90
42031;DHT22;27709;52.036;5.906;2024-01-25T08:07:28;4.60;99.90
42031;DHT22;27709;52.036;5.906;2024-01-25T08:09:53;4.60;99.90
42031;DHT22;27709;52.036;5.906;2024-01-25T08:12:22;4.70;99.90
42031;DHT22;27709;52.036;5.906;2024-01-25T08:14:48;4.70;99.90
42031;DHT22;27709;52.036;5.906;2024-01-25T08:17:13;4.80;99.90
42031;DHT22;27709;52.036;5.906;2024-01-25T08:19:39;4.80;99.90
42031;DHT22;27709;52.036;5.906;2024-01-25T08:22:05;4.90;99.90
42031;DHT22;27709;52.036;5.906;2024-01-25T08:24:31;5.00;99.90
42031;DHT22;27709;52.036;5.906;2024-01-25T08:26:56;5.00;99.90
42031;DHT22;27709;52.036;5.906;2024-01-25T08:29:22;5.00;99.90
42031;DHT22;27709;52.036;5.906;2024-01-25T08:31:48;5.00;99.90
42031;DHT22;27709;52.036;5.906;2024-01-25T08:34:14;4.90;99.90
42031;DHT22;27709;52.036;5.906;2024-01-25T08:36:40;4.90;99.90
42031;DHT22;27709;52.036;5.906;2024-01-25T08:39:05;5.00;99.90
42031;DHT22;27709;52.036;5.906;2024-01-25T08:41:31;5.10;99.90
42031;DHT22;27709;52.036;5.906;2024-01-25T08:43:57;5.30;99.90
42031;DHT22;27709;52.036;5.906;2024-01-25T08:46:22;5.40;99.90
42031;DHT22;27709;52.036;5.906;2024-01-25T08:48:48;5.60;99.90
42031;DHT22;27709;52.036;5.906;2024-01-25T08:51:13;5.70;99.90
42031;DHT22;27709;52.036;5.906;2024-01-25T08:53:39;5.90;99.90
42031;DHT22;27709;52.036;5.906;2024-01-25T08:56:05;6.00;99.90
42031;DHT22;27709;52.036;5.906;2024-01-25T08:58:31;6.20;99.90
42031;DHT22;27709;52.036;5.906;2024-01-25T09:00:56;6.40;99.90
42031;DHT22;27709;52.036;5.906;2024-01-25T09:03:22;6.60;99.90
42031;DHT22;27709;52.036;5.906;2024-01-25T09:05:48;6.70;99.90
42031;DHT22;27709;52.036;5.906;2024-01-25T09:08:14;6.80;99.90
42031;DHT22;27709;52.036;5.906;2024-01-25T09:10:41;7.10;99.90
42031;DHT22;27709;52.036;5.906;2024-01-25T09:13:07;7.20;99.90
42031;DHT22;27709;52.036;5.906;2024-01-25T09:15:33;7.30;99.90
42031;DHT22;27709;52.036;5.906;2024-01-25T09:17:59;7.40;99.90
42031;DHT22;27709;52.036;5.906;2024-01-25T09:20:24;7.50;99.90
42031;DHT22;27709;52.036;5.906;2024-01-25T09:22:51;7.60;99.90
42031;DHT22;27709;52.036;5.906;2024-01-25T09:25:19;7.60;99.90
42031;DHT22;27709;52.036;5.906;2024-01-25T09:27:44;7.60;99.90
42031;DHT22;27709;52.036;5.906;2024-01-25T09:30:10;7.70;99.90
42031;DHT22;27709;52.036;5.906;2024-01-25T09:32:36;7.60;99.90
42031;DHT22;27709;52.036;5.906;2024-01-25T09:35:01;7.60;99.90
42031;DHT22;27709;52.036;5.906;2024-01-25T09:37:27;7.70;99.90
42031;DHT22;27709;52.036;5.906;2024-01-25T09:39:52;7.70;99.90
42031;DHT22;27709;52.036;5.906;2024-01-25T09:42:18;7.80;99.90
42031;DHT22;27709;52.036;5.906;2024-01-25T09:44:45;7.90;99.90
42031;DHT22;27709;52.036;5.906;2024-01-25T09:47:11;8.00;99.90
42031;DHT22;27709;52.036;5.906;2024-01-25T09:49:37;8.20;99.90
42031;DHT22;27709;52.036;5.906;2024-01-25T09:52:04;8.30;99.90
42031;DHT22;27709;52.036;5.906;2024-01-25T09:54:39;8.40;99.90
42031;DHT22;27709;52.036;5.906;2024-01-25T09:57:14;8.60;99.90
42031;DHT22;27709;52.036;5.906;2024-01-25T09:59:42;8.60;99.90
42031;DHT22;27709;52.036;5.906;2024-01-25T10:02:09;8.60;99.90
42031;DHT22;27709;52.036;5.906;2024-01-25T10:04:34;8.60;99.90
42031;DHT22;27709;52.036;5.906;2024-01-25T10:07:00;8.70;99.90
42031;DHT22;27709;52.036;5.906;2024-01-25T10:09:25;8.80;99.90
42031;DHT22;27709;52.036;5.906;2024-01-25T10:11:52;8.80;99.90
42031;DHT22;27709;52.036;5.906;2024-01-25T10:14:18;8.90;99.90
42031;DHT22;27709;52.036;5.906;2024-01-25T10:16:45;8.90;99.90
42031;DHT22;27709;52.036;5.906;2024-01-25T10:19:11;9.00;99.90
42031;DHT22;27709;52.036;5.906;2024-01-25T10:21:37;9.00;99.90
42031;DHT22;27709;52.036;5.906;2024-01-25T10:24:05;9.00;99.90
42031;DHT22;27709;52.036;5.906;2024-01-25T10:26:30;9.10;99.90
42031;DHT22;27709;52.036;5.906;2024-01-25T10:28:56;9.20;99.90
42031;DHT22;27709;52.036;5.906;2024-01-25T10:31:28;9.20;99.90
42031;DHT22;27709;52.036;5.906;2024-01-25T10:33:54;9.30;99.90
42031;DHT22;27709;52.036;5.906;2024-01-25T10:36:24;9.40;99.90
42031;DHT22;27709;52.036;5.906;2024-01-25T10:38:53;9.50;99.90
42031;DHT22;27709;52.036;5.906;2024-01-25T10:41:20;9.60;99.90
42031;DHT22;27709;52.036;5.906;2024-01-25T10:43:46;9.70;99.90
42031;DHT22;27709;52.036;5.906;2024-01-25T10:46:12;9.80;99.90
42031;DHT22;27709;52.036;5.906;2024-01-25T10:48:38;9.90;99.90
42031;DHT22;27709;52.036;5.906;2024-01-25T10:51:04;10.00;99.90
42031;DHT22;27709;52.036;5.906;2024-01-25T10:53:34;10.10;99.90
42031;DHT22;27709;52.036;5.906;2024-01-25T10:56:01;10.30;99.90
42031;DHT22;27709;52.036;5.906;2024-01-25T10:58:33;10.30;99.90
42031;DHT22;27709;52.036;5.906;2024-01-25T11:01:00;10.40;99.90
42031;DHT22;27709;52.036;5.906;2024-01-25T11:03:27;10.30;99.90
42031;DHT22;27709;52.036;5.906;2024-01-25T11:05:55;10.40;99.90
42031;DHT22;27709;52.036;5.906;2024-01-25T11:08:20;10.40;99.90
42031;DHT22;27709;52.036;5.906;2024-01-25T11:10:52;10.40;99.90
42031;DHT22;27709;52.036;5.906;2024-01-25T11:13:29;10.50;99.90
42031;DHT22;27709;52.036;5.906;2024-01-25T11:15:55;10.50;99.90
42031;DHT22;27709;52.036;5.906;2024-01-25T11:18:25;10.50;99.90
42031;DHT22;27709;52.036;5.906;2024-01-25T11:20:51;10.50;99.90
42031;DHT22;27709;52.036;5.906;2024-01-25T11:23:17;10.50;99.90
42031;DHT22;27709;52.036;5.906;2024-01-25T11:25:45;10.60;99.90
42031;DHT22;27709;52.036;5.906;2024-01-25T11:28:14;10.60;99.90
42031;DHT22;27709;52.036;5.906;2024-01-25T11:30:40;10.50;99.90
42031;DHT22;27709;52.036;5.906;2024-01-25T11:33:08;10.40;99.90
42031;DHT22;27709;52.036;5.906;2024-01-25T11:35:35;10.30;99.90
42031;DHT22;27709;52.036;5.906;2024-01-25T11:38:01;10.30;99.90
42031;DHT22;27709;52.036;5.906;2024-01-25T11:40:27;10.30;99.90
42031;DHT22;27709;52.036;5.906;2024-01-25T11:42:56;10.40;99.90
42031;DHT22;27709;52.036;5.906;2024-01-25T11:45:22;10.50;99.90
42031;DHT22;27709;52.036;5.906;2024-01-25T11:47:48;10.60;99.90
42031;DHT22;27709;52.036;5.906;2024-01-25T11:50:15;10.70;99.90
42031;DHT22;27709;52.036;5.906;2024-01-25T11:52:40;10.90;99.90
42031;DHT22;27709;52.036;5.906;2024-01-25T11:55:07;11.00;99.90
42031;DHT22;27709;52.036;5.906;2024-01-25T11:57:42;11.20;99.90
42031;DHT22;27709;52.036;5.906;2024-01-25T12:00:10;11.20;99.90
42031;DHT22;27709;52.036;5.906;2024-01-25T12:02:38;11.20;99.90
42031;DHT22;27709;52.036;5.906;2024-01-25T12:05:04;11.20;99.90
42031;DHT22;27709;52.036;5.906;2024-01-25T12:07:31;11.20;99.90
42031;DHT22;27709;52.036;5.906;2024-01-25T12:10:05;11.20;99.90
42031;DHT22;27709;52.036;5.906;2024-01-25T12:12:31;11.20;99.90
42031;DHT22;27709;52.036;5.906;2024-01-25T12:15:07;11.10;99.90
42031;DHT22;27709;52.036;5.906;2024-01-25T12:17:33;11.10;99.90
42031;DHT22;27709;52.036;5.906;2024-01-25T12:20:02;11.00;99.90
42031;DHT22;27709;52.036;5.906;2024-01-25T12:22:29;11.00;99.90
42031;DHT22;27709;52.036;5.906;2024-01-25T12:24:56;11.00;99.90
42031;DHT22;27709;52.036;5.906;2024-01-25T12:27:22;11.10;99.90
42031;DHT22;27709;52.036;5.906;2024-01-25T12:29:49;11.10;99.90
42031;DHT22;27709;52.036;5.906;2024-01-25T12:32:15;11.10;99.90
42031;DHT22;27709;52.036;5.906;2024-01-25T12:34:40;11.10;99.90
42031;DHT22;27709;52.036;5.906;2024-01-25T12:37:07;11.10;99.90
42031;DHT22;27709;52.036;5.906;2024-01-25T12:39:33;11.20;99.90
42031;DHT22;27709;52.036;5.906;2024-01-25T12:41:59;11.10;99.90
42031;DHT22;27709;52.036;5.906;2024-01-25T12:44:25;11.00;99.90
42031;DHT22;27709;52.036;5.906;2024-01-25T12:46:51;10.90;99.90
42031;DHT22;27709;52.036;5.906;2024-01-25T12:49:17;10.80;99.90
42031;DHT22;27709;52.036;5.906;2024-01-25T12:51:43;10.70;99.90
42031;DHT22;27709;52.036;5.906;2024-01-25T12:54:09;10.70;99.90
42031;DHT22;27709;52.036;5.906;2024-01-25T12:56:35;10.70;99.90
42031;DHT22;27709;52.036;5.906;2024-01-25T12:59:00;10.80;99.90
42031;DHT22;27709;52.036;5.906;2024-01-25T13:01:26;11.00;99.90
42031;DHT22;27709;52.036;5.906;2024-01-25T13:03:52;11.00;99.90
42031;DHT22;27709;52.036;5.906;2024-01-25T13:06:18;11.10;99.90
42031;DHT22;27709;52.036;5.906;2024-01-25T13:08:44;11.20;99.90
42031;DHT22;27709;52.036;5.906;2024-01-25T13:11:09;11.20;99.90
42031;DHT22;27709;52.036;5.906;2024-01-25T13:13:35;11.30;99.90
42031;DHT22;27709;52.036;5.906;2024-01-25T13:16:00;11.40;99.90
42031;DHT22;27709;52.036;5.906;2024-01-25T13:18:26;11.50;99.90
42031;DHT22;27709;52.036;5.906;2024-01-25T13:20:52;11.50;99.90
42031;DHT22;27709;52.036;5.906;2024-01-25T13:23:17;11.60;99.60
42031;DHT22;27709;52.036;5.906;2024-01-25T13:25:43;11.50;99.50
42031;DHT22;27709;52.036;5.906;2024-01-25T13:28:08;11.60;99.60
42031;DHT22;27709;52.036;5.906;2024-01-25T13:30:34;11.50;99.60
42031;DHT22;27709;52.036;5.906;2024-01-25T13:32:59;11.40;99.60
42031;DHT22;27709;52.036;5.906;2024-01-25T13:35:25;11.40;99.60
42031;DHT22;27709;52.036;5.906;2024-01-25T13:37:50;11.40;99.60
42031;DHT22;27709;52.036;5.906;2024-01-25T13:40:16;11.30;99.50
42031;DHT22;27709;52.036;5.906;2024-01-25T13:42:42;11.30;99.60
42031;DHT22;27709;52.036;5.906;2024-01-25T13:45:08;11.30;99.60
42031;DHT22;27709;52.036;5.906;2024-01-25T13:47:34;11.30;99.70
42031;DHT22;27709;52.036;5.906;2024-01-25T13:49:59;11.20;99.60
42031;DHT22;27709;52.036;5.906;2024-01-25T13:52:25;11.00;99.80
42031;DHT22;27709;52.036;5.906;2024-01-25T13:54:50;11.00;99.80
42031;DHT22;27709;52.036;5.906;2024-01-25T13:57:16;11.00;99.90
42031;DHT22;27709;52.036;5.906;2024-01-25T13:59:42;10.90;99.90
42031;DHT22;27709;52.036;5.906;2024-01-25T14:02:08;10.90;99.90
42031;DHT22;27709;52.036;5.906;2024-01-25T14:04:34;10.90;99.90
42031;DHT22;27709;52.036;5.906;2024-01-25T14:06:59;11.00;99.90
42031;DHT22;27709;52.036;5.906;2024-01-25T14:09:28;11.00;99.90
42031;DHT22;27709;52.036;5.906;2024-01-25T14:11:55;11.00;99.90
42031;DHT22;27709;52.036;5.906;2024-01-25T14:14:20;11.00;99.90
42031;DHT22;27709;52.036;5.906;2024-01-25T14:16:46;11.00;99.90
42031;DHT22;27709;52.036;5.906;2024-01-25T14:19:11;11.00;99.90
42031;DHT22;27709;52.036;5.906;2024-01-25T14:21:37;10.90;99.90
42031;DHT22;27709;52.036;5.906;2024-01-25T14:24:02;10.90;99.90
42031;DHT22;27709;52.036;5.906;2024-01-25T14:26:28;10.80;99.90
42031;DHT22;27709;52.036;5.906;2024-01-25T14:28:54;10.80;99.90
42031;DHT22;27709;52.036;5.906;2024-01-25T14:31:19;10.80;99.90
42031;DHT22;27709;52.036;5.906;2024-01-25T14:33:45;10.70;99.90
42031;DHT22;27709;52.036;5.906;2024-01-25T14:36:10;10.80;99.90
42031;DHT22;27709;52.036;5.906;2024-01-25T14:38:36;10.80;99.90
42031;DHT22;27709;52.036;5.906;2024-01-25T14:41:02;10.80;99.90
42031;DHT22;27709;52.036;5.906;2024-01-25T14:43:27;10.80;99.90
42031;DHT22;27709;52.036;5.906;2024-01-25T14:45:53;10.80;99.90
42031;DHT22;27709;52.036;5.906;2024-01-25T14:48:18;10.90;99.90
42031;DHT22;27709;52.036;5.906;2024-01-25T14:50:44;10.80;99.90
42031;DHT22;27709;52.036;5.906;2024-01-25T14:53:10;10.80;99.90
42031;DHT22;27709;52.036;5.906;2024-01-25T14:55:35;10.80;99.90
42031;DHT22;27709;52.036;5.906;2024-01-25T14:58:01;10.70;99.90
42031;DHT22;27709;52.036;5.906;2024-01-25T15:00:26;10.70;99.90
42031;DHT22;27709;52.036;5.906;2024-01-25T15:02:52;10.70;99.90
42031;DHT22;27709;52.036;5.906;2024-01-25T15:05:18;10.70;99.90
42031;DHT22;27709;52.036;5.906;2024-01-25T15:07:43;10.60;99.90
42031;DHT22;27709;52.036;5.906;2024-01-25T15:10:09;10.60;99.90
42031;DHT22;27709;52.036;5.906;2024-01-25T15:12:35;10.60;99.90
42031;DHT22;27709;52.036;5.906;2024-01-25T15:15:01;10.50;99.90
42031;DHT22;27709;52.036;5.906;2024-01-25T15:17:26;10.50;99.90
42031;DHT22;27709;52.036;5.906;2024-01-25T15:19:52;10.50;99.90
42031;DHT22;27709;52.036;5.906;2024-01-25T15:22:17;10.50;99.90
42031;DHT22;27709;52.036;5.906;2024-01-25T15:24:43;10.50;99.90
42031;DHT22;27709;52.036;5.906;2024-01-25T15:27:10;10.40;99.90
42031;DHT22;27709;52.036;5.906;2024-01-25T15:29:39;10.40;99.90
42031;DHT22;27709;52.036;5.906;2024-01-25T15:32:05;10.50;99.90
42031;DHT22;27709;52.036;5.906;2024-01-25T15:34:31;10.40;99.90